createdAt,value
2022-09-01T00:01:35.902Z,5.50
2022-09-01T00:04:04.216Z,3.33
2022-09-01T00:06:35.454Z,3.25
2022-09-01T00:09:04.506Z,3.75
2022-09-01T00:11:31.681Z,3.50
2022-09-01T00:14:29.374Z,4.38
2022-09-01T00:16:57.604Z,4.22
2022-09-01T00:19:24.639Z,5.05
2022-09-01T00:21:51.783Z,3.95
2022-09-01T00:24:19.665Z,4.45
2022-09-01T00:26:47.120Z,7.47
2022-09-01T00:29:14.105Z,5.57
2022-09-01T00:31:41.618Z,5.63
2022-09-01T00:34:09.240Z,5.50
2022-09-01T00:36:36.294Z,4.95
2022-09-01T00:39:05.110Z,3.33
2022-09-01T00:41:36.534Z,4.30
2022-09-01T00:44:05.582Z,2.67
2022-09-01T00:46:36.957Z,5.65
2022-09-01T00:49:29.042Z,7.00
2022-09-01T00:52:04.805Z,6.10
2022-09-01T00:54:35.719Z,5.63
2022-09-01T00:57:03.816Z,4.40
2022-09-01T00:59:31.845Z,4.60
2022-09-01T01:02:02.012Z,5.05
2022-09-01T01:04:30.485Z,3.92
2022-09-01T01:07:02.387Z,4.70
2022-09-01T01:09:32.115Z,3.15
2022-09-01T01:12:04.111Z,5.22
2022-09-01T01:14:32.500Z,5.13
2022-09-01T01:17:01.049Z,4.68
2022-09-01T01:20:05.514Z,3.40
2022-09-01T01:23:05.398Z,2.75
2022-09-01T01:25:42.400Z,3.17
2022-09-01T01:28:26.945Z,3.97
2022-09-01T01:30:56.601Z,3.85
2022-09-01T01:33:29.998Z,6.70
2022-09-01T01:36:00.719Z,6.25
2022-09-01T01:38:34.867Z,2.20
2022-09-01T01:41:06.638Z,3.35
2022-09-01T01:43:50.697Z,4.18
2022-09-01T01:46:28.985Z,3.83
2022-09-01T01:48:57.020Z,3.95
2022-09-01T01:51:33.048Z,5.07
2022-09-01T01:54:07.533Z,7.22
2022-09-01T01:56:39.881Z,4.88
2022-09-01T01:59:08.226Z,3.70
2022-09-01T02:01:39.659Z,3.10
2022-09-01T02:06:57.663Z,5.43
2022-09-01T02:09:25.055Z,4.13
2022-09-01T02:12:02.816Z,6.43
2022-09-01T02:14:33.784Z,4.95
2022-09-01T02:17:06.438Z,5.22
2022-09-01T02:19:37.108Z,4.53
2022-09-01T02:22:04.218Z,4.00
2022-09-01T02:24:31.920Z,5.10
2022-09-01T02:27:01.289Z,3.35
2022-09-01T02:29:29.556Z,2.38
2022-09-01T02:32:02.168Z,3.92
2022-09-01T02:34:42.708Z,5.60
2022-09-01T02:37:09.789Z,4.75
2022-09-01T02:39:36.854Z,5.45
2022-09-01T02:42:03.950Z,7.18
2022-09-01T02:44:32.437Z,4.22
2022-09-01T02:47:01.639Z,4.32
2022-09-01T02:49:30.087Z,8.75
2022-09-01T02:51:59.864Z,4.15
2022-09-01T02:54:40.337Z,4.05
2022-09-01T02:57:17.741Z,4.95
2022-09-01T03:02:12.798Z,7.57
2022-09-01T03:04:42.144Z,4.45
2022-09-01T03:07:12.591Z,3.95
2022-09-01T03:09:41.730Z,8.18
2022-09-01T03:12:08.692Z,7.60
2022-09-01T03:14:35.729Z,2.72
2022-09-01T03:17:02.944Z,3.50
2022-09-01T03:19:40.546Z,6.32
2022-09-01T03:22:07.744Z,4.50
2022-09-01T03:24:34.804Z,2.90
2022-09-01T03:27:17.366Z,4.82
2022-09-01T03:29:48.094Z,3.80
2022-09-01T03:32:30.284Z,5.30
2022-09-01T03:35:12.246Z,4.55
2022-09-01T03:37:48.414Z,5.70
2022-09-01T03:40:42.620Z,4.72
2022-09-01T03:43:13.735Z,3.63
2022-09-01T03:45:43.791Z,5.72
2022-09-01T03:48:29.368Z,4.53
2022-09-01T03:51:00.827Z,4.55
2022-09-01T03:53:28.794Z,6.30
2022-09-01T03:55:57.737Z,6.32
2022-09-01T03:58:31.417Z,5.50
2022-09-01T04:01:08.584Z,4.63
2022-09-01T04:03:41.530Z,5.85
2022-09-01T04:06:11.272Z,5.60
2022-09-01T04:08:38.735Z,4.35
2022-09-01T04:11:14.250Z,7.43
2022-09-01T04:13:44.318Z,5.75
2022-09-01T04:16:49.212Z,4.97
2022-09-01T04:19:20.848Z,5.95
2022-09-01T04:21:51.870Z,6.07
2022-09-01T04:24:36.104Z,4.85
2022-09-01T04:27:11.474Z,5.80
2022-09-01T04:29:38.587Z,8.52
2022-09-01T04:32:45.662Z,5.50
2022-09-01T04:35:17.283Z,5.38
2022-09-01T04:37:56.100Z,4.85
2022-09-01T04:40:31.481Z,4.45
2022-09-01T04:43:03.551Z,5.03
2022-09-01T04:45:35.021Z,3.67
2022-09-01T04:48:03.295Z,4.40
2022-09-01T04:50:35.003Z,6.55
2022-09-01T04:53:16.127Z,5.82
2022-09-01T04:55:46.345Z,4.72
2022-09-01T05:01:20.302Z,4.28
2022-09-01T05:03:56.684Z,5.28
2022-09-01T05:06:33.843Z,4.60
2022-09-01T05:10:11.782Z,4.95
2022-09-01T05:13:13.265Z,4.20
2022-09-01T05:15:46.677Z,3.95
2022-09-01T05:21:26.850Z,6.93
2022-09-01T05:24:11.559Z,9.05
2022-09-01T05:27:02.832Z,6.10
2022-09-01T05:29:40.761Z,10.57
2022-09-01T05:33:10.864Z,7.50
2022-09-01T05:35:31.678Z,5.40
2022-09-01T05:38:28.243Z,4.35
2022-09-01T05:41:07.550Z,5.10
2022-09-01T05:46:30.342Z,5.20
2022-09-01T05:48:58.926Z,4.85
2022-09-01T05:51:43.793Z,7.10
2022-09-01T05:54:22.404Z,5.18
2022-09-01T05:56:50.291Z,6.65
2022-09-01T05:59:25.361Z,5.07
2022-09-01T06:01:54.338Z,5.68
2022-09-01T06:04:29.956Z,5.18
2022-09-01T06:07:06.728Z,4.78
2022-09-01T06:09:45.671Z,4.00
2022-09-01T06:12:23.104Z,5.75
2022-09-01T06:14:51.800Z,7.95
2022-09-01T06:17:31.953Z,6.38
2022-09-01T06:20:10.982Z,6.07
2022-09-01T06:22:42.376Z,8.02
2022-09-01T06:25:17.489Z,5.47
2022-09-01T06:27:49.606Z,3.78
2022-09-01T06:30:36.602Z,8.23
2022-09-01T06:33:09.646Z,4.68
2022-09-01T06:35:41.882Z,4.20
2022-09-01T06:38:28.165Z,6.22
2022-09-01T06:41:08.559Z,5.70
2022-09-01T06:43:42.089Z,3.95
2022-09-01T06:46:09.998Z,6.30
2022-09-01T06:48:43.874Z,9.20
2022-09-01T06:51:23.633Z,6.50
2022-09-01T06:54:08.269Z,7.00
2022-09-01T06:56:51.754Z,5.13
2022-09-01T07:02:07.463Z,5.10
2022-09-01T07:05:58.859Z,5.57
2022-09-01T07:08:07.681Z,5.55
2022-09-01T07:11:19.553Z,5.88
2022-09-01T07:13:27.595Z,3.63
2022-09-01T07:18:57.994Z,10.55
2022-09-01T07:21:40.765Z,5.53
2022-09-01T07:24:11.515Z,4.95
2022-09-01T07:26:46.758Z,6.28
2022-09-01T07:29:14.114Z,6.15
2022-09-01T07:32:44.126Z,4.22
2022-09-01T07:34:40.633Z,6.63
2022-09-01T07:42:31.769Z,5.68
2022-09-01T07:45:33.462Z,5.68
2022-09-01T07:48:09.663Z,4.93
2022-09-01T07:50:40.907Z,6.45
2022-09-01T07:53:09.590Z,5.50
2022-09-01T07:55:43.762Z,6.43
2022-09-01T07:58:11.788Z,6.70
2022-09-01T08:00:40.018Z,5.82
2022-09-01T08:03:07.431Z,8.57
2022-09-01T08:05:34.592Z,5.60
2022-09-01T08:08:01.876Z,7.30
2022-09-01T08:10:32.972Z,6.75
2022-09-01T08:16:06.907Z,10.20
2022-09-01T08:20:56.148Z,5.80
2022-09-01T08:23:26.696Z,6.43
2022-09-01T08:25:53.927Z,9.77
2022-09-01T08:28:26.639Z,5.32
2022-09-01T08:30:53.955Z,6.10
2022-09-01T08:33:21.347Z,4.93
2022-09-01T08:35:51.534Z,5.93
2022-09-01T08:38:29.111Z,8.73
2022-09-01T08:41:00.213Z,6.60
2022-09-01T08:45:56.300Z,6.25
2022-09-01T08:49:23.741Z,8.93
2022-09-01T08:51:43.271Z,5.10
2022-09-01T08:54:29.840Z,6.60
2022-09-01T08:57:05.332Z,5.55
2022-09-01T08:59:32.362Z,3.50
2022-09-01T09:02:06.097Z,7.60
2022-09-01T09:04:33.859Z,3.33
2022-09-01T09:07:21.189Z,6.25
2022-09-01T09:09:58.055Z,8.32
2022-09-01T09:12:52.946Z,4.57
2022-09-01T09:15:38.375Z,8.05
2022-09-01T09:18:39.213Z,6.40
2022-09-01T09:21:12.198Z,3.60
2022-09-01T09:23:41.765Z,4.63
2022-09-01T09:26:08.796Z,4.10
2022-09-01T09:28:37.784Z,7.68
2022-09-01T09:31:24.047Z,6.53
2022-09-01T09:33:55.422Z,5.90
2022-09-01T09:36:33.850Z,6.60
2022-09-01T09:39:06.840Z,4.00
2022-09-01T09:41:37.403Z,4.43
2022-09-01T09:44:23.293Z,5.18
2022-09-01T09:46:50.365Z,6.47
2022-09-01T09:49:34.329Z,3.42
2022-09-01T09:52:02.073Z,7.55
2022-09-01T09:54:30.591Z,6.38
2022-09-01T09:57:12.195Z,6.97
2022-09-01T09:59:57.592Z,4.88
2022-09-01T10:02:32.770Z,5.35
2022-09-01T10:05:01.796Z,3.58
2022-09-01T10:07:33.193Z,6.82
2022-09-01T10:10:02.202Z,4.78
2022-09-01T10:12:32.389Z,7.72
2022-09-01T10:15:12.584Z,3.72
2022-09-01T10:17:43.546Z,6.25
2022-09-01T10:20:20.599Z,7.63
2022-09-01T10:22:54.787Z,4.97
2022-09-01T10:25:26.332Z,5.57
2022-09-01T10:27:59.063Z,5.97
2022-09-01T10:30:27.144Z,7.43
2022-09-01T10:32:56.892Z,5.82
2022-09-01T10:37:53.827Z,4.13
2022-09-01T10:40:31.767Z,4.50
2022-09-01T10:43:17.764Z,3.25
2022-09-01T10:45:44.749Z,5.15
2022-09-01T10:48:55.796Z,3.35
2022-09-01T10:51:29.067Z,6.10
2022-09-01T10:54:04.525Z,9.93
2022-09-01T10:56:43.584Z,5.18
2022-09-01T10:59:33.796Z,3.88
2022-09-01T11:04:59.117Z,3.10
2022-09-01T11:07:58.141Z,4.53
2022-09-01T11:10:35.412Z,5.20
2022-09-01T11:13:15.326Z,3.90
2022-09-01T11:15:45.007Z,5.25
2022-09-01T11:18:31.784Z,4.57
2022-09-01T11:21:16.253Z,3.45
2022-09-01T11:23:43.737Z,2.53
2022-09-01T11:26:34.234Z,2.33
2022-09-01T11:29:02.053Z,2.88
2022-09-01T11:31:30.834Z,3.42
2022-09-01T11:33:58.605Z,3.85
2022-09-01T11:36:59.505Z,4.70
2022-09-01T11:39:34.864Z,3.25
2022-09-01T11:42:05.994Z,5.95
2022-09-01T11:44:40.017Z,2.75
2022-09-01T11:47:18.195Z,4.35
2022-09-01T11:50:05.003Z,4.50
2022-09-01T11:52:36.022Z,2.83
2022-09-01T11:55:04.189Z,2.95
2022-09-01T11:57:33.350Z,2.38
2022-09-01T12:00:11.936Z,2.80
2022-09-01T12:02:46.435Z,3.22
2022-09-01T12:05:29.158Z,4.20
2022-09-01T12:07:56.583Z,4.30
2022-09-01T12:10:31.453Z,3.50
2022-09-01T12:13:09.128Z,4.60
2022-09-01T12:15:46.419Z,2.88
2022-09-01T12:18:32.572Z,4.20
2022-09-01T12:21:02.439Z,4.45
2022-09-01T12:23:37.746Z,3.22
2022-09-01T12:26:07.227Z,3.58
2022-09-01T12:28:35.414Z,2.40
2022-09-01T12:31:07.646Z,5.50
2022-09-01T12:33:35.231Z,3.63
2022-09-01T12:36:25.315Z,2.53
2022-09-01T12:38:57.143Z,3.15
2022-09-01T12:41:24.314Z,3.28
2022-09-01T12:43:54.816Z,4.28
2022-09-01T12:46:44.849Z,2.53
2022-09-01T12:49:28.774Z,3.05
2022-09-01T12:52:24.592Z,4.22
2022-09-01T12:55:12.496Z,5.82
2022-09-01T12:57:45.392Z,4.75
2022-09-01T13:00:13.056Z,3.80
2022-09-01T13:02:49.739Z,2.40
2022-09-01T13:05:37.371Z,4.40
2022-09-01T13:08:09.473Z,6.63
2022-09-01T13:10:54.952Z,2.95
2022-09-01T13:13:24.302Z,5.38
2022-09-01T13:15:53.247Z,4.72
2022-09-01T13:18:30.414Z,2.63
2022-09-01T13:23:24.691Z,3.50
2022-09-01T13:25:51.677Z,5.07
2022-09-01T13:28:18.934Z,4.97
2022-09-01T13:30:48.711Z,5.22
2022-09-01T13:33:21.546Z,3.03
2022-09-01T13:35:51.301Z,3.30
2022-09-01T13:38:18.991Z,3.58
2022-09-01T13:40:47.521Z,3.45
2022-09-01T13:43:19.566Z,5.90
2022-09-01T13:45:47.207Z,3.85
2022-09-01T13:48:18.757Z,2.97
2022-09-01T13:53:36.586Z,4.25
2022-09-01T13:56:04.039Z,2.65
2022-09-01T13:58:31.177Z,7.20
2022-09-01T14:01:00.257Z,5.97
2022-09-01T14:03:27.327Z,4.28
2022-09-01T14:05:54.730Z,5.25
2022-09-01T14:08:27.280Z,2.80
2022-09-01T14:10:54.695Z,3.65
2022-09-01T14:13:22.171Z,4.22
2022-09-01T14:15:49.725Z,4.13
2022-09-01T14:18:17.431Z,3.35
2022-09-01T14:20:46.505Z,3.38
2022-09-01T14:23:14.257Z,6.00
2022-09-01T14:25:51.142Z,3.47
2022-09-01T14:28:20.690Z,3.88
2022-09-01T14:30:48.662Z,5.93
2022-09-01T14:33:18.120Z,6.95
2022-09-01T14:35:46.697Z,4.28
2022-09-01T14:38:16.770Z,6.00
2022-09-01T14:40:48.220Z,3.70
2022-09-01T14:43:15.466Z,3.90
2022-09-01T14:45:47.272Z,3.75
2022-09-01T14:48:15.780Z,4.57
2022-09-01T14:50:44.009Z,2.80
2022-09-01T14:53:11.843Z,3.40
2022-09-01T14:55:39.343Z,5.57
2022-09-01T14:58:06.416Z,6.20
2022-09-01T15:00:36.295Z,4.45
2022-09-01T15:03:06.407Z,3.03
2022-09-01T15:05:37.749Z,4.60
2022-09-01T15:08:08.620Z,5.55
2022-09-01T15:10:36.802Z,6.68
2022-09-01T15:13:04.125Z,3.67
2022-09-01T15:15:31.426Z,5.13
2022-09-01T15:17:59.699Z,4.50
2022-09-01T15:20:45.937Z,4.38
2022-09-01T15:23:14.302Z,4.28
2022-09-01T15:25:41.589Z,5.55
2022-09-01T15:28:09.110Z,3.08
2022-09-01T15:30:37.149Z,4.30
2022-09-01T15:33:05.262Z,4.38
2022-09-01T15:35:32.573Z,4.63
2022-09-01T15:37:59.966Z,5.03
2022-09-01T15:40:30.796Z,5.00
2022-09-01T15:43:00.311Z,4.32
2022-09-01T15:45:28.922Z,8.40
2022-09-01T15:47:56.693Z,4.78
2022-09-01T15:50:33.906Z,3.45
2022-09-01T15:55:30.075Z,3.75
2022-09-01T15:57:58.140Z,4.75
2022-09-01T16:00:36.773Z,4.38
2022-09-01T16:03:06.336Z,4.93
2022-09-01T16:05:35.329Z,5.82
2022-09-01T16:08:03.921Z,5.50
2022-09-01T16:10:39.136Z,5.60
2022-09-01T16:13:06.173Z,3.10
2022-09-01T16:15:33.256Z,6.10
2022-09-01T16:18:06.391Z,6.28
2022-09-01T16:20:38.912Z,5.85
2022-09-01T16:23:06.047Z,4.38
2022-09-01T16:25:34.685Z,4.10
2022-09-01T16:28:04.889Z,6.28
2022-09-01T16:30:33.295Z,4.85
2022-09-01T16:33:03.320Z,5.80
2022-09-01T16:35:44.928Z,5.30
2022-09-01T16:38:12.745Z,5.50
2022-09-01T16:40:47.226Z,5.47
2022-09-01T16:43:15.704Z,7.82
2022-09-01T16:45:48.537Z,6.45
2022-09-01T16:48:35.738Z,6.93
2022-09-01T16:51:06.691Z,6.63
2022-09-01T16:53:37.673Z,7.00
2022-09-01T16:56:13.288Z,5.07
2022-09-01T16:58:46.781Z,4.25
2022-09-01T17:01:25.272Z,4.93
2022-09-01T17:03:52.235Z,5.25
2022-09-01T17:06:34.132Z,5.30
2022-09-01T17:09:09.197Z,5.97
2022-09-01T17:12:03.380Z,5.80
2022-09-01T17:14:40.087Z,5.43
2022-09-01T17:17:09.380Z,7.20
2022-09-01T17:19:37.764Z,8.25
2022-09-01T17:22:06.283Z,6.05
2022-09-01T17:24:39.427Z,6.78
2022-09-01T17:27:23.552Z,4.93
2022-09-01T17:29:54.435Z,5.35
2022-09-01T17:32:35.298Z,6.78
2022-09-01T17:35:05.475Z,7.28
2022-09-01T17:37:42.952Z,5.53
2022-09-01T17:40:21.759Z,5.15
2022-09-01T17:42:53.900Z,6.13
2022-09-01T17:45:32.338Z,5.97
2022-09-01T17:48:07.502Z,6.65
2022-09-01T17:50:40.549Z,5.00
2022-09-01T17:53:26.594Z,4.93
2022-09-01T17:56:05.809Z,5.97
2022-09-01T17:58:42.200Z,5.00
2022-09-01T18:01:29.856Z,4.03
2022-09-01T18:03:58.421Z,4.78
2022-09-01T18:06:34.523Z,6.38
2022-09-01T18:09:06.785Z,6.10
2022-09-01T18:11:46.036Z,4.80
2022-09-01T18:14:18.469Z,5.68
2022-09-01T18:17:01.077Z,5.90
2022-09-01T18:19:48.344Z,5.38
2022-09-01T18:22:17.082Z,6.50
2022-09-01T18:24:56.822Z,5.40
2022-09-01T18:27:26.827Z,5.15
2022-09-01T18:32:31.092Z,4.85
2022-09-01T18:35:02.701Z,5.35
2022-09-01T18:37:38.929Z,5.65
2022-09-01T18:40:32.765Z,6.38
2022-09-01T18:43:01.843Z,5.63
2022-09-01T18:45:33.320Z,5.32
2022-09-01T18:48:03.921Z,4.07
2022-09-01T18:50:49.347Z,3.72
2022-09-01T18:53:23.261Z,8.20
2022-09-01T18:55:58.405Z,5.03
2022-09-01T18:58:43.844Z,6.38
2022-09-01T19:01:13.730Z,6.32
2022-09-01T19:03:59.579Z,8.48
2022-09-01T19:07:01.007Z,6.47
2022-09-01T19:09:34.435Z,5.82
2022-09-01T19:12:11.267Z,6.55
2022-09-01T19:14:57.277Z,5.90
2022-09-01T19:17:24.839Z,7.25
2022-09-01T19:19:54.687Z,5.35
2022-09-01T19:22:48.514Z,5.38
2022-09-01T19:25:33.964Z,5.82
2022-09-01T19:28:13.304Z,8.57
2022-09-01T19:30:47.762Z,7.53
2022-09-01T19:33:18.066Z,6.00
2022-09-01T19:35:47.807Z,5.85
2022-09-01T19:38:19.327Z,5.85
2022-09-01T19:40:54.595Z,4.85
2022-09-01T19:43:27.507Z,5.68
2022-09-01T19:46:03.580Z,6.88
2022-09-01T19:48:51.752Z,8.35
2022-09-01T19:51:19.155Z,9.82
2022-09-01T19:53:46.430Z,8.68
2022-09-01T19:56:16.185Z,8.60
2022-09-01T19:58:47.995Z,7.78
2022-09-01T20:01:18.105Z,7.78
2022-09-01T20:03:49.210Z,7.32
2022-09-01T20:09:07.184Z,8.82
2022-09-01T20:11:47.927Z,7.90
2022-09-01T20:14:21.669Z,10.45
2022-09-01T20:16:53.418Z,10.70
2022-09-01T20:19:23.665Z,12.48
2022-09-01T20:21:50.816Z,9.63
2022-09-01T20:24:38.707Z,11.45
2022-09-01T20:27:24.863Z,12.52
2022-09-01T20:29:59.360Z,9.68
2022-09-01T20:33:04.216Z,10.18
2022-09-01T20:35:41.075Z,9.38
2022-09-01T20:38:36.114Z,8.27
2022-09-01T20:41:21.198Z,10.75
2022-09-01T20:43:52.275Z,7.97
2022-09-01T20:48:55.720Z,9.23
2022-09-01T20:51:44.739Z,8.27
2022-09-01T20:57:36.264Z,9.85
2022-09-01T21:00:26.201Z,8.00
2022-09-01T21:06:02.983Z,7.95
2022-09-01T21:08:43.398Z,8.10
2022-09-01T21:11:19.567Z,8.18
2022-09-01T21:13:59.456Z,10.02
2022-09-01T21:16:43.070Z,11.00
2022-09-01T21:19:24.381Z,8.55
2022-09-01T21:22:02.722Z,8.82
2022-09-01T21:24:38.794Z,8.52
2022-09-01T21:27:08.659Z,6.40
2022-09-01T21:29:52.647Z,10.70
2022-09-01T21:32:20.589Z,8.52
2022-09-01T21:34:48.379Z,11.00
2022-09-01T21:37:15.607Z,10.05
2022-09-01T21:39:46.276Z,8.02
2022-09-01T21:42:13.857Z,8.43
2022-09-01T21:44:42.105Z,7.40
2022-09-01T21:47:12.555Z,10.98
2022-09-01T21:49:52.857Z,8.40
2022-09-01T21:52:19.976Z,7.90
2022-09-01T21:54:50.618Z,10.10
2022-09-01T21:57:18.249Z,10.98
2022-09-01T21:59:45.771Z,9.27
2022-09-01T22:02:13.802Z,7.93
2022-09-01T22:04:45.069Z,12.25
2022-09-01T22:07:21.538Z,12.20
2022-09-01T22:09:48.957Z,13.15
2022-09-01T22:12:16.113Z,9.82
2022-09-01T22:14:43.948Z,11.57
2022-09-01T22:17:11.415Z,9.98
2022-09-01T22:19:40.265Z,14.07
2022-09-01T22:22:07.776Z,11.23
2022-09-01T22:24:44.640Z,12.50
2022-09-01T22:27:12.179Z,11.48
2022-09-01T22:29:42.811Z,11.68
2022-09-01T22:32:45.794Z,11.13
2022-09-01T22:35:16.848Z,13.30
2022-09-01T22:37:44.173Z,12.25
2022-09-01T22:40:14.590Z,10.65
2022-09-01T22:42:42.955Z,13.02
2022-09-01T22:45:14.315Z,12.07
2022-09-01T22:47:45.549Z,11.82
2022-09-01T22:50:12.820Z,10.57
2022-09-01T22:52:55.516Z,12.13
2022-09-01T22:55:27.449Z,12.32
2022-09-01T22:58:05.648Z,10.93
2022-09-01T23:00:42.883Z,11.90
2022-09-01T23:03:12.304Z,14.88
2022-09-01T23:05:40.086Z,12.57
2022-09-01T23:08:11.301Z,11.85
2022-09-01T23:10:50.653Z,11.05
2022-09-01T23:13:23.008Z,12.35
2022-09-01T23:15:50.087Z,13.15
2022-09-01T23:18:40.777Z,11.43
2022-09-01T23:21:09.801Z,12.98
2022-09-01T23:23:37.440Z,14.82
2022-09-01T23:26:06.429Z,11.75
2022-09-01T23:28:52.792Z,10.65
2022-09-01T23:31:21.516Z,12.82
2022-09-01T23:33:51.932Z,12.82
2022-09-01T23:36:23.693Z,12.85
2022-09-01T23:39:00.761Z,12.05
2022-09-01T23:41:31.526Z,11.93
2022-09-01T23:44:01.147Z,13.50
2022-09-01T23:46:48.656Z,14.10
2022-09-01T23:49:28.055Z,12.18
2022-09-01T23:51:56.026Z,14.55
2022-09-01T23:54:42.239Z,10.80
2022-09-01T23:57:09.499Z,12.48
2022-09-01T23:59:39.451Z,14.07
